Decoded Metar for LEAB (ALBACETE in SPAIN) (IATA:ABC) | Meteo·Mobile Aviation Weather
aviador You're here:

LEAB Decoded Metar

ALBACETE in SPAIN
Report Time2019-10-18 13:00:00
UTC Time2019-10-18 13:43:52
Flight Rules vfr VFR
Wind270° at 10 kt
W.Decomp.*RWY 27: 10.0 kt HW 0.2 kt RCW
Visibility9999 m
Phenomena:N/A
Clouds:N/A
Expected CloudBase > 5,200 ft AGL from Temp-Dew spread
CeilingNone
Temp23°C (ISA +13)
Dew Point10°C (44% RH)
AAT19.5°C
QNH1018 hPa
Density Alt3,770 ft
Elevation2,310 ft
Report Wrong Elevation
Raw Report
LEAB 181300Z 27010KT 240V300 CAVOK 23/10 Q1018 NOSIG=

Extra information for LEAB:More info

Metar Taf Metar & Taf Last 4 Metars F.Rules Stats Wind Profile Meteogram Temp Stats Airport Information Weather charts Add Link Nearby VenuesMetar ALERT Operation Metar Decoded Social comments